Hampshire, Illinois
Current Conditions -  °F | °C
As of 7:35 AM on Friday 19 Dec 2014 (Local Time) from KDKB Reporting Station
Scattered Clouds Scattered Clouds  
Wind Chill: 15°   Ceiling: Unl
Heat Index: 23°   Visibility: 10mi
Dew Point: 20°   Wind: 7mph
Humidity: 87%   Direction: 350°N
Pressure: 30.29"   Gusts: NA
Location:  42.1°N, 88.53°W
Report Text: KDKB 191335Z AUTO 35006KT 10SM SCT019 M05/M07 A3029 RMK AO2 T10501068
Loading
Personal Weather Stations






























Interactive Weather Map New forecast layout! Learn more

10-Day Weather Forecast

Advertisements
Track Severe Weather on mobile